Latest Coastal Weather Observations for Sydney Airport

IDN60701

Issued at 9:55 pm EST Friday 1 August 2014 (issued every 10 minutes, with the page automatically refreshed every 10 minutes)

About coastal observations | Map of coastal stations | Coastal observations for NSW | Marine services | Other Formats
Station Details ID: 066037 Name: SYDNEY AIRPORT AMO Lat: -33.95 Lon: 151.17 Height: 6.0 m
Data from the previous 72 hours. | See also: Recent months at Sydney Airport
Date/Time
EST
Temp

°C
Wind Pressure Rain
since 9am
mm
Weather Cloud Vis
km
Sea
Height
m
Swell
Dir
 
Speed
knots
Gust
knots
hPa Trend Height
m
Period
s
Dir
01/09:30pm 9.7 W 9 11 1015.9 - 0.0 - - 10 - - - -
01/09:00pm 9.4 NW 13 17 1015.4 R 0.0 Fine Mostly clear 30 - - - -
01/08:30pm 9.9 NW 15 19 1015.1 - 0.0 - - 10 - - - -
01/08:04pm 9.9 WNW 19 29 1014.4 - 0.0 - Mostly clear 10 - - - -
01/08:00pm 10.0 WNW 23 30 1014.4 - 0.0 - Mostly clear 10 - - - -
01/07:30pm 11.0 WNW 27 38 1014.2 - 0.0 - Mostly clear 10 - - - -
01/07:00pm 12.2 WNW 31 38 1012.9 - 0.0 - Mostly clear 10 - - - -
01/06:30pm 12.9 WNW 27 36 1013.1 - 0.0 - - 10 - - - -
01/06:15pm 13.4 WNW 33 38 1012.7 - 0.0 - - 10 - - - -
01/06:00pm 14.0 WNW 22 32 1012.2 R 0.0 Fine Mostly clear 30 - - - -
01/05:37pm 14.2 WNW 20 30 1011.6 - 0.0 - - 10 - - - -
01/05:30pm 14.4 WNW 19 24 1011.4 - 0.0 - - 10 - - - -
01/05:00pm 15.0 W 20 27 1010.7 - 0.0 - - 10 - - - -
01/04:30pm 15.5 W 16 24 1010.2 - 0.0 - - 10 - - - -
01/04:00pm 16.2 W 19 28 1009.7 - 0.0 - - 10 - - - -
01/03:30pm 16.5 W 22 30 1009.3 - 0.0 - - 10 - - - -
01/03:12pm 16.4 W 20 30 1009.1 - 0.0 - - 10 - - - -
01/03:00pm 16.7 W 21 27 1009.0 R 0.0 Fine Mostly clear 40 - - - -
01/02:30pm 16.6 W 25 36 1008.7 - 0.0 - - 10 - - - -
01/02:04pm 17.5 W 22 32 1008.3 - 0.0 - - 10 - - - -
01/02:00pm 16.9 W 23 32 1008.3 - 0.0 - - 10 - - - -
01/01:43pm 17.5 W 17 27 1008.1 - 0.0 - - 10 - - - -
01/01:30pm 16.6 W 18 22 1007.9 - 0.0 - - 10 - - - -
01/01:02pm 16.3 W 18 28 1007.9 - 0.0 - Partly cloudy 10 - - - -
01/01:00pm 17.0 W 18 26 1007.9 - 0.0 - Partly cloudy 10 - - - -
01/12:30pm 17.4 W 19 26 1007.7 - 0.0 - Partly cloudy 10 - - - -
01/12:00pm 17.0 W 22 27 1007.7 R 0.0 Fine Partly cloudy 40 - - - -
01/11:30am 18.7 WSW 16 22 1007.6 - 0.0 - Partly cloudy 10 - - - -
01/11:00am 18.6 W 15 26 1007.3 - 0.0 - - 10 - - - -
01/10:49am 18.9 WNW 17 28 1007.3 - 0.0 - - 10 - - - -
01/10:30am 19.1 NW 15 20 1007.3 - 0.0 - Partly cloudy 10 - - - -
01/10:00am 18.8 WNW 12 16 1007.5 - 0.0 - Partly cloudy 10 - - - -
01/09:30am 18.5 WNW 12 15 1007.4 - 0.0 - - 10 - - - -
01/09:00am 18.2 W 9 12 1007.3 R 0.0 Fine Mostly clear 40 - - - -
01/08:30am 17.3 W 8 9 1007.3 - 0.0 - - 10 - - - -
01/08:00am 16.4 W 10 14 1006.9 - 0.0 - - 10 - - - -
01/07:30am 16.1 W 15 19 1006.4 - 0.0 - - 10 - - - -
01/07:00am 15.9 WNW 11 18 1005.8 - 0.0 - - 10 - - - -
01/06:30am 17.6 WNW 14 18 1005.2 - 0.0 - - 10 - - - -
01/06:22am 18.0 NW 15 19 1005.0 - 0.0 - - 10 - - - -
01/06:00am 17.2 N 7 8 1004.6 F 0.0 Fine Clear 40 - - - -
01/05:30am 16.8 WNW 6 9 1004.4 - 0.0 - - 10 - - - -
01/05:00am 16.7 N 9 10 1004.1 - 0.0 - - 10 - - - -
01/04:30am 17.1 N 11 14 1003.4 - 0.0 - - 10 - - - -
01/04:00am 16.7 N 13 16 1003.6 - 0.0 - - 10 - - - -
01/03:30am 16.7 N 13 17 1003.9 - 0.0 - - 10 - - - -
01/03:00am 16.2 N 11 15 1004.2 F 0.0 Fine Clear 40 - - - -
01/02:30am 16.9 N 14 16 1004.5 - 0.0 - - 10 - - - -
01/02:00am 17.7 N 17 22 1004.8 - 0.0 - - 10 - - - -
01/01:30am 17.7 N 17 20 1005.1 - 0.0 - - 10 - - - -
01/01:00am 17.7 N 16 20 1005.3 - 0.0 - - 10 - - - -
01/12:30am 18.0 N 14 16 1005.5 - 0.0 - - 10 - - - -
01/12:00am 18.0 N 14 17 1005.8 F 0.0 Fine Clear 40 - - - -
 
Date/Time
EST
Temp

°C
Wind Pressure Rain
since 9am
mm
Weather Cloud Vis
km
Sea
Height
m
Swell
Dir
 
Speed
knots
Gust
knots
hPa Trend Height
m
Period
s
Dir
31/11:30pm 18.1 N 13 17 1005.9 - 0.0 - - 10 - - - -
31/11:00pm 18.8 N 13 18 1006.0 - 0.0 - - 10 - - - -
31/10:30pm 18.8 N 14 17 1006.1 - 0.0 - - 10 - - - -
31/10:00pm 19.3 N 14 18 1006.3 - 0.0 - - 10 - - - -
31/09:30pm 19.7 N 13 17 1006.6 - 0.0 - - 10 - - - -
31/09:00pm 19.9 N 15 19 1006.7 F 0.0 Fine Clear 40 - - - -
31/08:30pm 20.4 N 15 18 1006.8 - 0.0 - - 10 - - - -
31/08:00pm 20.9 N 16 20 1006.5 - 0.0 - - 10 - - - -
31/07:30pm 21.1 N 17 22 1006.5 - 0.0 - - 10 - - - -
31/07:00pm 21.5 N 16 20 1006.5 - 0.0 - - 10 - - - -
31/06:30pm 22.0 N 17 22 1006.2 - 0.0 - - 10 - - - -
31/06:00pm 22.6 N 16 19 1006.2 F 0.0 Fine Clear 40 - - - -
31/05:30pm 23.1 NNW 20 27 1006.2 - 0.0 - - 10 - - - -
31/05:10pm 23.4 NNW 19 29 1006.2 - 0.0 - - 10 - - - -
31/05:00pm 23.6 NNW 22 28 1006.2 - 0.0 - - 10 - - - -
31/04:30pm 24.0 NNW 19 27 1006.2 - 0.0 - - 10 - - - -
31/04:00pm 24.5 NNW 21 29 1006.4 - 0.0 - - 10 - - - -
31/03:30pm 25.2 NNW 21 29 1006.5 - 0.0 - - 10 - - - -
31/03:00pm 25.3 NNW 21 31 1006.7 F 0.0 Fine Clear 40 - - - -
31/02:30pm 25.3 NNW 23 29 1007.0 - 0.0 - - 10 - - - -
31/02:00pm 24.9 N 23 30 1007.4 - 0.0 - - 10 - - - -
31/01:30pm 24.6 NNW 23 30 1007.9 - 0.0 - - 10 - - - -
31/01:00pm 24.8 NNW 19 29 1008.5 - 0.0 - - 10 - - - -
31/12:34pm 24.7 NNW 17 27 1009.2 - 0.0 - - 10 - - - -
31/12:30pm 24.6 NNW 17 25 1009.2 - 0.0 - - 10 - - - -
31/12:00pm 24.3 NNW 17 21 1010.4 F 0.0 Fine Mostly clear 40 - - - -
31/11:30am 22.8 NNW 19 26 1011.3 - 0.0 - - 10 - - - -
31/11:00am 22.5 N 17 22 1012.1 - 0.0 - - 10 - - - -
31/10:30am 22.4 NNW 17 22 1012.8 - 0.0 - - 10 - - - -
31/10:00am 21.2 NNW 18 21 1013.2 - 0.0 - - 10 - - - -
31/09:30am 20.3 N 15 19 1013.5 - 0.0 - - 10 - - - -
31/09:00am 19.1 N 16 20 1013.8 F 0.0 Fine Mostly clear 40 - - - -
31/08:30am 18.3 N 12 16 1014.0 - 0.0 - - 10 - - - -
31/08:00am 17.2 N 10 14 1014.1 - 0.0 - - 10 - - - -
31/07:30am 15.9 N 11 14 1014.2 - 0.0 - - 10 - - - -
31/07:00am 15.1 N 11 13 1014.2 - 0.0 - - 10 - - - -
31/06:30am 14.3 N 9 10 1014.3 - 0.0 - - 10 - - - -
31/06:00am 14.6 NNE 5 7 1014.2 F 0.0 Fine Clear 40 - - - -
31/05:30am 13.9 N 8 9 1014.0 - 0.0 - - 10 - - - -
31/05:00am 14.4 N 11 11 1014.0 - 0.0 - - 10 - - - -
31/04:30am 14.5 N 9 11 1014.1 - 0.0 - - 10 - - - -
31/04:00am 14.1 N 11 14 1014.2 - 0.0 - - 10 - - - -
31/03:30am 13.5 N 11 13 1014.3 - 0.0 - - 10 - - - -
31/03:00am 13.8 N 10 12 1014.4 F 0.0 Fine Clear 40 - - - -
31/02:30am 14.4 N 10 13 1014.7 - 0.0 - - 10 - - - -
31/02:00am 15.3 N 13 15 1015.0 - 0.0 - - 10 - - - -
31/01:30am 14.9 N 12 14 1015.4 - 0.0 - - 10 - - - -
31/01:00am 14.9 N 12 14 1015.7 - 0.0 - - 10 - - - -
31/12:30am 15.8 N 12 13 1016.0 - 0.0 - - 10 - - - -
31/12:00am 16.2 N 11 14 1016.2 F 0.0 Fine Clear 40 - - - -
 
Date/Time
EST
Temp

°C
Wind Pressure Rain
since 9am
mm
Weather Cloud Vis
km
Sea
Height
m
Swell
Dir
 
Speed
knots
Gust
knots
hPa Trend Height
m
Period
s
Dir
30/11:30pm 16.0 N 9 10 1016.6 - 0.0 - - 10 - - - -
30/11:00pm 16.0 N 9 10 1016.9 - 0.0 - - 10 - - - -
30/10:30pm 17.1 NNW 9 11 1017.1 - 0.0 - - 10 - - - -
30/10:00pm 17.3 NNW 9 13 1017.1 - 0.0 - - 10 - - - -
30/09:30pm 17.7 N 9 12 1017.1 - 0.0 - - 10 - - - -
30/09:00pm 17.9 NNW 9 10 1017.2 S 0.0 Fine Mostly clear 40 - - - -
30/08:30pm 18.7 NW 9 11 1017.3 - 0.0 - - 10 - - - -
30/08:00pm 18.8 NW 9 12 1017.4 - 0.0 - - 10 - - - -
30/07:30pm 18.7 W 6 7 1017.4 - 0.0 - Partly cloudy 10 - - - -
30/07:00pm 18.1 WSW 7 9 1017.1 - 0.0 - - 10 - - - -
30/06:30pm 19.6 WNW 10 14 1016.8 - 0.0 - - 10 - - - -
30/06:00pm 20.8 NW 12 16 1016.2 R 0.0 Fine Mostly clear 40 - - - -
30/05:30pm 21.4 NW 14 17 1015.7 - 0.0 - - 10 - - - -
30/05:00pm 21.9 WNW 13 17 1015.2 - 0.0 - - 10 - - - -
30/04:30pm 22.5 WNW 15 19 1014.8 - 0.0 - - 10 - - - -
30/04:00pm 23.9 WNW 12 17 1014.5 - 0.0 - - 10 - - - -
30/03:30pm 23.5 W 15 21 1014.4 - 0.0 - - 10 - - - -
30/03:00pm 24.2 WNW 13 18 1014.4 F 0.0 Fine Mostly clear 30 - - - -
30/02:30pm 23.6 WNW 17 22 1014.3 - 0.0 - - 10 - - - -
30/02:00pm 23.9 WNW 16 21 1014.2 - 0.0 - - 10 - - - -
30/01:30pm 24.5 NW 13 18 1014.4 - 0.0 - - 10 - - - -
30/01:00pm 22.8 W 9 14 1014.7 - 0.0 - - 10 - - - -
30/12:30pm 22.1 W 11 17 1015.4 - 0.0 - - 10 - - - -
30/12:00pm 22.6 WNW 11 15 1015.9 F 0.0 Fine Mostly clear 30 - - - -
30/11:30am 22.8 W 12 19 1016.4 - 0.0 - - 10 - - - -
30/11:00am 21.8 W 12 16 1017.1 - 0.0 - - 10 - - - -
30/10:30am 21.3 WNW 13 19 1017.2 - 0.0 - - 10 - - - -
30/10:00am 20.9 NW 11 16 1017.4 - 0.0 - - 10 - - - -
30/09:30am 19.9 E 5 7 1017.7 - 0.0 - - 10 - - - -
30/09:00am 19.1 W 3 6 1017.8 F 0.0 Fine Mostly cloudy 30 - - - -
30/08:30am 17.8 WNW 8 10 1017.8 - 0.0 - - 10 - - - -
30/08:00am 16.0 N 11 14 1017.6 - 0.0 - - 10 - - - -
30/07:30am 15.7 NNW 5 7 1017.9 - 0.0 - - 10 - - - -
30/07:00am 15.5 NW 7 11 1017.7 - 0.0 - - 10 - - - -
30/06:30am 15.7 NW 8 10 1017.3 - 0.0 - - 10 - - - -
30/06:00am 12.6 WSW 4 5 1017.2 R 0.0 Fine Mostly clear 40 - - - -
30/05:30am 12.0 NE 7 8 1016.4 - 0.0 - - 10 - - - -
30/05:00am 14.3 NW 7 9 1016.1 - 0.0 - - 10 - - - -
30/04:30am 14.5 NNE 7 9 1015.8 - 0.0 - - 10 - - - -
30/04:00am 14.3 NNW 10 17 1015.2 - 0.0 - - 10 - - - -
30/03:30am 13.9 NW 15 18 1015.4 - 0.0 - - 10 - - - -
30/03:00am 13.3 NNW 9 10 1015.9 R 0.0 Fine Clear 40 - - - -
30/02:30am 14.0 NW 7 7 1015.6 - 0.0 - - 10 - - - -
30/02:00am 13.7 N 8 9 1015.5 - 0.0 - - 10 - - - -
30/01:30am 14.1 NNW 8 9 1015.5 - 0.0 - - 10 - - - -
30/01:00am 14.6 N 9 9 1015.6 - 0.0 - - 10 - - - -
30/12:30am 14.9 N 9 9 1015.6 - 0.0 - - 10 - - - -
30/12:00am 15.0 N 9 9 1015.6 F 0.0 Fine Clear 40 - - - -
 
Date/Time
EST
Temp

°C
Wind Pressure Rain
since 9am
mm
Weather Cloud Vis
km
Sea
Height
m
Swell
Dir
 
Speed
knots
Gust
knots
hPa Trend Height
m
Period
s
Dir
29/11:30pm 15.5 N 10 13 1015.5 - 0.0 - - 10 - - - -
29/11:00pm 15.9 N 13 15 1015.6 - 0.0 - - 10 - - - -
29/10:30pm 17.0 N 14 16 1015.6 - 0.0 - - 10 - - - -
29/10:00pm 17.1 N 15 19 1015.5 - 0.0 - - 10 - - - -

Other Formats:

Comma delimited format used in spreadsheet applications
http://www.bom.gov.au/fwo/IDN60701/IDN60701.94767.axf

JavaScript Object Notation format (JSON) in row-major order
http://www.bom.gov.au/fwo/IDN60701/IDN60701.94767.json